Time;durP1;ratioP1;P1;durP2;ratioP2;P2;SDS_P1;SDS_P2;PMS_P1;PMS_P2;Temp;Humidity;BMP_temperature;BMP_pressure;BME280_temperature;BME280_humidity;BME280_pressure;Samples;Min_cycle;Max_cycle;Signal;HPM_P1;HPM_P2
2022/01/22 00:03:16;;;;;;;5.70;4.07;;;0.50;99.90;;;;;;8480157;27;20187;-66
2022/01/22 00:07:17;;;;;;;9.70;4.77;;;0.50;99.90;;;;;;8471266;27;20206;-66
2022/01/22 00:11:18;;;;;;;10.23;4.83;;;0.50;99.90;;;;;;8469830;27;20298;-69
2022/01/22 00:15:23;;;;;;;9.27;4.83;;;0.60;99.90;;;;;;8475700;27;20202;-72
2022/01/22 00:19:25;;;;;;;7.87;4.70;;;0.60;99.90;;;;;;8481187;27;20239;-67
2022/01/22 00:23:27;;;;;;;9.10;4.77;;;0.60;99.90;;;;;;8468926;27;20213;-67
2022/01/22 00:27:29;;;;;;;6.40;4.60;;;0.60;99.90;;;;;;8453816;27;20211;-66
2022/01/22 00:31:33;;;;;;;7.63;4.73;;;0.70;99.90;;;;;;8476102;27;20210;-64
2022/01/22 00:35:34;;;;;;;6.53;4.20;;;0.70;99.90;;;;;;8481393;27;20215;-65
2022/01/22 00:39:35;;;;;;;9.43;4.73;;;0.60;99.90;;;;;;8475326;27;20232;-65
2022/01/22 00:43:36;;;;;;;8.03;4.53;;;0.60;99.90;;;;;;8484561;27;20456;-65
2022/01/22 00:47:37;;;;;;;7.47;4.27;;;0.60;99.90;;;;;;8470463;27;20207;-65
2022/01/22 00:51:38;;;;;;;5.20;3.87;;;0.60;99.90;;;;;;8451995;28;20179;-65
2022/01/22 00:55:39;;;;;;;8.57;4.00;;;0.60;99.90;;;;;;8459751;28;20258;-65
2022/01/22 00:59:40;;;;;;;7.10;4.23;;;0.60;99.90;;;;;;8477905;27;20183;-66
2022/01/22 01:03:41;;;;;;;4.93;3.43;;;0.60;99.90;;;;;;8485467;27;20262;-65
2022/01/22 01:07:42;;;;;;;5.47;3.47;;;0.60;99.90;;;;;;8486224;27;20199;-66
2022/01/22 01:11:51;;;;;;;6.20;3.50;;;0.60;99.90;;;;;;8485746;27;20176;-66
2022/01/22 01:16:02;;;;;;;6.13;3.37;;;0.50;99.90;;;;;;8486573;27;20219;-65
2022/01/22 01:33:26;;;;;;;3.97;2.70;;;0.50;99.90;;;;;;8468624;27;20281;-66
2022/01/22 01:37:27;;;;;;;3.87;2.73;;;0.50;99.90;;;;;;8474941;27;20184;-67
2022/01/22 01:45:47;;;;;;;4.73;2.73;;;0.50;99.90;;;;;;8477950;27;20190;-66
2022/01/22 01:49:47;;;;;;;4.07;2.67;;;0.50;99.90;;;;;;8481933;27;20313;-66
2022/01/22 01:57:49;;;;;;;4.23;2.87;;;0.50;99.90;;;;;;8492530;27;20312;-66
2022/01/22 02:01:51;;;;;;;3.47;2.70;;;0.50;99.90;;;;;;8491333;27;20186;-67
2022/01/22 02:05:52;;;;;;;3.10;2.30;;;0.50;99.90;;;;;;8478883;27;20176;-66
2022/01/22 02:09:53;;;;;;;5.13;2.87;;;0.50;99.90;;;;;;8459678;27;20290;-67
2022/01/22 02:26:37;;;;;;;4.17;3.23;;;0.50;99.90;;;;;;8488691;27;20267;-66
2022/01/22 02:30:42;;;;;;;6.70;3.80;;;0.50;99.90;;;;;;8480309;27;20226;-66
2022/01/22 02:35:03;;;;;;;6.17;3.60;;;0.60;99.90;;;;;;8481887;27;20192;-68
2022/01/22 02:39:12;;;;;;;7.23;4.07;;;0.60;99.90;;;;;;8475271;27;20185;-67
2022/01/22 02:43:13;;;;;;;5.13;3.87;;;0.60;99.90;;;;;;8479027;27;20240;-67
2022/01/22 02:47:16;;;;;;;7.63;4.63;;;0.60;99.90;;;;;;8486105;27;20217;-68
2022/01/22 02:51:17;;;;;;;5.67;4.17;;;0.60;99.90;;;;;;8490000;27;20189;-67
2022/01/22 02:55:17;;;;;;;8.20;4.27;;;0.60;99.90;;;;;;8488865;27;20182;-66
2022/01/22 02:59:22;;;;;;;6.80;4.83;;;0.60;99.90;;;;;;8488870;27;20710;-66
2022/01/22 03:03:22;;;;;;;6.50;4.80;;;0.60;99.90;;;;;;8481757;27;20182;-69
2022/01/22 03:07:24;;;;;;;6.93;5.03;;;0.60;99.90;;;;;;8488402;27;20203;-67
2022/01/22 03:11:30;;;;;;;10.17;5.40;;;0.60;99.90;;;;;;8484335;27;20510;-67
2022/01/22 03:16:00;;;;;;;7.80;4.57;;;0.60;99.90;;;;;;8479656;27;20219;-68
2022/01/22 03:28:18;;;;;;;11.47;5.30;;;0.70;99.90;;;;;;8461976;27;20219;-67
2022/01/22 03:32:19;;;;;;;6.33;4.00;;;0.70;99.90;;;;;;8474907;27;20257;-70
2022/01/22 03:36:21;;;;;;;10.23;5.27;;;0.70;99.90;;;;;;8478176;27;20214;-67
2022/01/22 03:40:25;;;;;;;7.27;4.90;;;0.70;99.90;;;;;;8477480;27;20222;-68
2022/01/22 03:44:26;;;;;;;7.80;6.03;;;0.70;99.90;;;;;;8467290;27;20186;-67
2022/01/22 03:48:26;;;;;;;8.07;5.20;;;0.70;99.90;;;;;;8469025;27;20553;-68
2022/01/22 03:52:27;;;;;;;9.30;6.00;;;0.70;99.90;;;;;;8474993;27;20179;-67
2022/01/22 03:56:28;;;;;;;7.00;5.30;;;0.70;99.90;;;;;;8486189;27;20262;-68
2022/01/22 04:00:29;;;;;;;6.60;4.83;;;0.70;99.90;;;;;;8482530;27;20641;-68
2022/01/22 04:04:40;;;;;;;7.60;5.23;;;0.70;99.90;;;;;;8473916;27;20186;-68
2022/01/22 04:08:41;;;;;;;7.27;5.13;;;0.70;99.90;;;;;;8486483;27;20206;-67
2022/01/22 04:12:55;;;;;;;9.43;5.70;;;0.70;99.90;;;;;;8474062;27;20191;-67
2022/01/22 04:17:10;;;;;;;10.23;5.67;;;0.70;99.90;;;;;;8471003;27;20461;-69
2022/01/22 04:25:34;;;;;;;13.03;5.53;;;0.70;99.90;;;;;;8480279;27;20218;-68
2022/01/22 04:29:35;;;;;;;9.20;6.20;;;0.70;99.90;;;;;;8464565;27;20213;-66
2022/01/22 04:33:36;;;;;;;9.80;5.30;;;0.70;99.90;;;;;;8453101;27;20184;-66
2022/01/22 04:37:36;;;;;;;7.07;5.37;;;0.60;99.90;;;;;;8479430;27;20183;-67
2022/01/22 04:41:37;;;;;;;10.93;5.93;;;0.60;99.90;;;;;;8482693;27;20245;-67
2022/01/22 04:58:06;;;;;;;9.57;6.00;;;0.40;99.90;;;;;;8482524;27;20228;-66
2022/01/22 05:02:07;;;;;;;10.40;5.40;;;0.40;99.90;;;;;;8467404;27;20232;-66
2022/01/22 05:06:08;;;;;;;12.03;6.07;;;0.50;99.90;;;;;;8487096;28;20255;-66
2022/01/22 05:10:09;;;;;;;9.17;5.20;;;0.50;99.90;;;;;;8452007;27;20215;-66
2022/01/22 05:14:10;;;;;;;9.77;5.37;;;0.50;99.90;;;;;;8480926;27;20184;-66
2022/01/22 05:18:11;;;;;;;9.87;5.80;;;0.50;99.90;;;;;;8472833;28;20210;-65
2022/01/22 05:38:57;;;;;;;7.90;5.17;;;0.50;99.90;;;;;;8461573;28;20213;-70
2022/01/22 05:42:58;;;;;;;8.87;5.57;;;0.50;99.90;;;;;;8468861;27;20187;-67
2022/01/22 05:47:04;;;;;;;10.93;4.77;;;0.50;99.90;;;;;;8478203;27;20210;-67
2022/01/22 05:51:06;;;;;;;9.50;5.07;;;0.40;99.90;;;;;;8460788;27;20184;-67
2022/01/22 06:03:47;;;;;;;10.27;4.73;;;0.30;99.90;;;;;;8442440;27;20568;-67
2022/01/22 06:07:48;;;;;;;13.00;4.80;;;0.30;99.90;;;;;;8475971;27;20216;-68
2022/01/22 06:12:14;;;;;;;9.30;4.53;;;0.30;99.90;;;;;;8464238;27;20182;-70
2022/01/22 06:16:17;;;;;;;8.80;4.20;;;0.20;99.90;;;;;;8491183;27;20198;-69
2022/01/22 06:20:18;;;;;;;7.53;4.20;;;0.20;99.90;;;;;;8459236;28;20202;-70
2022/01/22 06:24:20;;;;;;;6.30;3.97;;;0.10;99.90;;;;;;8480683;27;20183;-67
2022/01/22 06:28:21;;;;;;;6.47;4.00;;;0.00;99.90;;;;;;8465483;27;20389;-67
2022/01/22 06:32:21;;;;;;;5.57;3.20;;;-0.10;99.90;;;;;;8480915;27;20239;-68
2022/01/22 06:36:22;;;;;;;5.83;3.00;;;-0.10;99.90;;;;;;8479843;27;20183;-68
2022/01/22 06:44:25;;;;;;;7.70;2.90;;;-0.10;99.90;;;;;;8473832;27;20182;-68
2022/01/22 06:48:26;;;;;;;5.03;3.50;;;-0.10;99.90;;;;;;8488697;27;20295;-68
2022/01/22 06:52:29;;;;;;;7.53;3.43;;;-0.10;99.90;;;;;;8489163;27;20242;-68
2022/01/22 06:56:30;;;;;;;6.17;3.07;;;-0.10;99.90;;;;;;8489351;27;20217;-69
2022/01/22 07:00:31;;;;;;;5.50;3.67;;;-0.20;99.90;;;;;;8484844;27;20521;-70
2022/01/22 07:04:36;;;;;;;8.80;4.37;;;-0.20;99.90;;;;;;8484309;27;20193;-70
2022/01/22 07:08:37;;;;;;;8.13;4.43;;;-0.20;99.90;;;;;;8489831;27;20211;-70
2022/01/22 07:12:40;;;;;;;10.13;5.23;;;-0.20;99.90;;;;;;8477448;27;20185;-70
2022/01/22 07:16:40;;;;;;;12.83;7.00;;;-0.20;99.90;;;;;;8479751;27;20211;-70
2022/01/22 07:20:43;;;;;;;7.67;4.73;;;-0.30;99.90;;;;;;8459278;27;20200;-70
2022/01/22 07:24:44;;;;;;;9.80;5.10;;;-0.40;99.90;;;;;;8464430;27;20190;-71
2022/01/22 07:28:44;;;;;;;12.67;5.87;;;-0.40;99.90;;;;;;8476146;27;20213;-70
2022/01/22 07:32:45;;;;;;;11.73;5.73;;;-0.50;99.90;;;;;;8472553;27;20202;-71
2022/01/22 07:36:46;;;;;;;14.47;6.43;;;-0.50;99.90;;;;;;8470457;27;20175;-71
2022/01/22 07:40:47;;;;;;;12.43;6.27;;;-0.50;99.90;;;;;;8457489;27;20180;-71
2022/01/22 07:44:48;;;;;;;9.90;5.80;;;-0.50;99.90;;;;;;8475765;27;20198;-70
2022/01/22 07:48:49;;;;;;;12.07;6.37;;;-0.40;99.90;;;;;;8478693;27;20271;-71
2022/01/22 07:52:50;;;;;;;14.63;7.23;;;-0.40;99.90;;;;;;8488815;27;20224;-70
2022/01/22 07:56:51;;;;;;;14.90;7.03;;;-0.30;99.90;;;;;;8485177;27;20193;-71
2022/01/22 08:00:52;;;;;;;16.27;7.30;;;-0.20;99.90;;;;;;8477133;27;20273;-70
2022/01/22 08:04:52;;;;;;;7.93;4.83;;;0.00;99.90;;;;;;8476010;27;20213;-70
2022/01/22 08:08:53;;;;;;;9.17;5.07;;;0.10;99.90;;;;;;8457222;27;20208;-70
2022/01/22 08:12:55;;;;;;;9.40;5.40;;;0.00;99.90;;;;;;8464512;27;20406;-71
2022/01/22 08:16:55;;;;;;;11.57;5.73;;;0.10;99.90;;;;;;8481310;27;20237;-71
2022/01/22 08:20:56;;;;;;;11.40;5.30;;;0.20;99.90;;;;;;8452467;28;20189;-71
2022/01/22 08:25:00;;;;;;;8.70;4.90;;;0.30;99.90;;;;;;8482565;27;20193;-70
2022/01/22 08:29:03;;;;;;;9.60;4.43;;;0.50;99.90;;;;;;8471123;27;20207;-69
2022/01/22 08:33:33;;;;;;;6.93;4.43;;;0.60;99.90;;;;;;8479483;27;20175;-70
2022/01/22 08:37:30;;;;;;;7.20;3.03;;;0.50;99.90;;;;;;8460291;27;20267;-70
2022/01/22 08:41:32;;;;;;;12.83;4.50;;;0.30;99.90;;;;;;8462816;27;20181;-70
2022/01/22 08:45:34;;;;;;;10.90;5.60;;;0.20;99.90;;;;;;8474011;27;20186;-72
2022/01/22 08:49:35;;;;;;;8.80;4.23;;;0.10;99.90;;;;;;8485752;27;20229;-70
2022/01/22 08:53:35;;;;;;;5.87;3.70;;;0.10;99.90;;;;;;8485893;27;20167;-68
2022/01/22 08:57:37;;;;;;;7.03;3.17;;;0.40;99.90;;;;;;8482396;27;20220;-68
2022/01/22 09:01:40;;;;;;;5.23;3.03;;;0.50;99.90;;;;;;8481691;27;20183;-68
2022/01/22 09:05:42;;;;;;;4.73;2.20;;;0.50;99.90;;;;;;8461352;28;20179;-69
2022/01/22 09:09:42;;;;;;;3.20;1.80;;;0.50;99.90;;;;;;8454649;28;20218;-69
2022/01/22 09:13:44;;;;;;;2.47;2.10;;;0.40;99.90;;;;;;8470767;28;20262;-69
2022/01/22 09:17:47;;;;;;;5.87;2.17;;;0.30;99.90;;;;;;8465641;28;20195;-69
2022/01/22 09:21:48;;;;;;;3.90;1.83;;;0.50;99.90;;;;;;8458549;27;20183;-68
2022/01/22 09:25:49;;;;;;;4.03;2.20;;;0.60;99.90;;;;;;8487237;27;20186;-68
2022/01/22 09:29:50;;;;;;;3.93;1.93;;;0.70;99.90;;;;;;8476670;27;20214;-68
2022/01/22 09:33:51;;;;;;;2.80;1.90;;;0.90;99.90;;;;;;8471063;27;20258;-69
2022/01/22 09:37:52;;;;;;;6.53;2.43;;;0.90;99.90;;;;;;8488888;27;20190;-67
2022/01/22 09:41:53;;;;;;;5.77;2.17;;;1.00;99.90;;;;;;8476352;27;20179;-68
2022/01/22 09:45:54;;;;;;;6.20;3.33;;;0.90;99.90;;;;;;8480336;27;20184;-69
2022/01/22 09:49:55;;;;;;;3.97;2.27;;;0.80;99.90;;;;;;8483830;27;20261;-68
2022/01/22 09:53:56;;;;;;;2.07;1.60;;;1.00;99.90;;;;;;8476275;27;20175;-68
2022/01/22 09:57:58;;;;;;;4.43;2.17;;;1.10;99.90;;;;;;8488034;27;20203;-68
2022/01/22 10:02:14;;;;;;;5.00;2.30;;;1.10;99.90;;;;;;8483457;27;20178;-69
2022/01/22 10:06:16;;;;;;;5.20;1.80;;;1.20;99.90;;;;;;8484650;27;20182;-69
2022/01/22 10:10:17;;;;;;;3.47;1.67;;;1.30;99.90;;;;;;8480107;27;20237;-71
2022/01/22 10:14:17;;;;;;;5.00;2.53;;;1.10;99.90;;;;;;8465031;27;20179;-69
2022/01/22 10:18:19;;;;;;;2.53;1.60;;;0.90;99.90;;;;;;8473396;27;20249;-68
2022/01/22 10:22:21;;;;;;;3.37;1.57;;;0.90;99.90;;;;;;8465723;27;20521;-68
2022/01/22 10:26:22;;;;;;;2.60;1.60;;;1.10;99.90;;;;;;8487294;27;20187;-69
2022/01/22 10:30:25;;;;;;;2.93;1.70;;;1.30;99.90;;;;;;8488190;27;20215;-69
2022/01/22 10:34:30;;;;;;;5.87;3.23;;;1.50;1.00;;;;;;8479940;27;20190;-70
2022/01/22 10:38:43;;;;;;;5.77;2.83;;;1.80;99.90;;;;;;8482420;27;20290;-69
2022/01/22 10:42:44;;;;;;;4.53;2.07;;;1.40;99.90;;;;;;8466364;27;20179;-68
2022/01/22 10:47:03;;;;;;;4.77;2.13;;;1.20;99.90;;;;;;8477149;27;20183;-68
2022/01/22 10:51:15;;;;;;;2.40;1.20;;;1.10;99.90;;;;;;8457072;27;20180;-71
2022/01/22 10:55:16;;;;;;;5.23;1.47;;;1.00;99.90;;;;;;8461386;27;20178;-68
2022/01/22 10:59:19;;;;;;;4.17;1.67;;;1.00;99.90;;;;;;8478726;27;20206;-70
2022/01/22 11:03:23;;;;;;;5.23;1.73;;;1.00;99.90;;;;;;8482404;27;20183;-68
2022/01/22 11:07:24;;;;;;;1.83;1.40;;;1.10;99.90;;;;;;8481410;27;20195;-68
2022/01/22 11:11:24;;;;;;;3.23;1.70;;;1.10;99.90;;;;;;8487166;27;20210;-68
2022/01/22 11:15:27;;;;;;;2.13;1.57;;;1.20;99.90;;;;;;8471514;27;20199;-68
2022/01/22 11:19:33;;;;;;;6.27;1.83;;;1.20;1.00;;;;;;8486673;27;20172;-69
2022/01/22 11:23:35;;;;;;;3.67;2.10;;;1.00;1.00;;;;;;8482818;27;20180;-70
2022/01/22 11:27:36;;;;;;;5.93;2.10;;;1.00;99.90;;;;;;8486457;27;20203;-67
2022/01/22 11:31:39;;;;;;;2.50;1.40;;;1.00;99.90;;;;;;8479350;27;20180;-67
2022/01/22 11:36:23;;;;;;;4.93;2.30;;;0.90;99.90;;;;;;8486321;27;20248;-66
2022/01/22 11:40:27;;;;;;;5.37;1.90;;;1.00;99.90;;;;;;8451670;27;20186;-66
2022/01/22 11:44:47;;;;;;;3.50;1.57;;;1.00;99.90;;;;;;8467858;27;20213;-69
2022/01/22 11:49:08;;;;;;;3.00;2.00;;;1.10;99.90;;;;;;8474886;27;20222;-66
2022/01/22 11:53:29;;;;;;;3.83;1.77;;;1.30;1.00;;;;;;8472611;27;20270;-70
2022/01/22 11:57:31;;;;;;;4.80;1.40;;;1.20;1.00;;;;;;8477533;27;20255;-66
2022/01/22 12:01:51;;;;;;;7.77;3.60;;;1.20;99.90;;;;;;8480173;27;20190;-67
2022/01/22 12:05:54;;;;;;;4.00;1.80;;;1.40;99.90;;;;;;8470585;27;20194;-66
2022/01/22 12:10:33;;;;;;;3.30;1.60;;;1.50;85.80;;;;;;8486896;27;20227;-71
2022/01/22 12:14:54;;;;;;;3.17;1.80;;;1.30;1.00;;;;;;8473846;27;20173;-70
2022/01/22 12:18:59;;;;;;;4.90;2.00;;;1.20;99.90;;;;;;8480691;27;20203;-69
2022/01/22 12:23:00;;;;;;;4.03;1.60;;;1.10;99.90;;;;;;8467499;27;20190;-71
2022/01/22 12:27:04;;;;;;;3.27;1.30;;;1.10;99.90;;;;;;8486261;27;20198;-67
2022/01/22 12:31:18;;;;;;;4.33;2.07;;;0.90;1.00;;;;;;8484785;27;20175;-67
2022/01/22 12:35:34;;;;;;;4.87;2.10;;;0.70;99.90;;;;;;8467990;27;20252;-67
2022/01/22 12:39:43;;;;;;;5.83;2.77;;;0.60;1.00;;;;;;8467275;27;20197;-67
2022/01/22 12:43:46;;;;;;;4.97;2.13;;;0.70;99.90;;;;;;8470149;27;20304;-67
2022/01/22 12:47:49;;;;;;;3.33;1.33;;;0.90;1.00;;;;;;8478100;27;20191;-67
2022/01/22 12:51:58;;;;;;;4.57;1.73;;;1.10;1.00;;;;;;8467872;27;20191;-68
2022/01/22 13:04:09;;;;;;;2.80;1.47;;;1.60;1.00;;;;;;8455294;28;20179;-67
2022/01/22 13:08:10;;;;;;;5.53;1.67;;;1.70;99.90;;;;;;8485423;28;20217;-67
2022/01/22 13:12:11;;;;;;;2.90;1.70;;;1.60;1.00;;;;;;8482817;28;20290;-67
2022/01/22 13:16:16;;;;;;;2.80;2.00;;;1.40;99.90;;;;;;8467962;28;20278;-66
2022/01/22 13:20:26;;;;;;;7.07;3.17;;;1.30;1.00;;;;;;8452867;28;20190;-67
2022/01/22 13:24:29;;;;;;;5.37;2.83;;;1.30;99.90;;;;;;8472328;27;20175;-66
2022/01/22 13:28:33;;;;;;;4.40;2.37;;;1.30;99.90;;;;;;8470959;28;20248;-67
2022/01/22 13:32:51;;;;;;;3.93;2.40;;;1.40;99.90;;;;;;8472941;27;20188;-67
2022/01/22 13:37:28;;;;;;;4.13;2.40;;;1.60;1.00;;;;;;8474189;27;20184;-67
2022/01/22 13:49:53;;;;;;;2.63;1.67;;;1.60;99.90;;;;;;8468072;27;20207;-67
2022/01/22 13:53:56;;;;;;;4.27;1.90;;;1.50;1.00;;;;;;8458827;27;20188;-69
2022/01/22 13:57:57;;;;;;;2.60;1.77;;;1.40;1.00;;;;;;8471956;27;20237;-67
2022/01/22 14:02:17;;;;;;;5.60;1.60;;;1.40;1.00;;;;;;8471489;27;20232;-66
2022/01/22 14:06:18;;;;;;;3.10;1.77;;;1.40;94.50;;;;;;8462448;27;20180;-67
2022/01/22 14:10:25;;;;;;;5.47;1.40;;;1.40;99.90;;;;;;8492001;27;20213;-69
2022/01/22 14:14:26;;;;;;;3.70;2.47;;;1.30;99.90;;;;;;8481501;27;20306;-67
2022/01/22 14:18:39;;;;;;;4.17;2.60;;;1.20;1.00;;;;;;8483874;27;20235;-67
2022/01/22 14:22:59;;;;;;;2.87;1.93;;;1.10;99.90;;;;;;8483451;27;20187;-67
2022/01/22 14:27:02;;;;;;;4.80;2.43;;;1.00;99.90;;;;;;8479559;27;20184;-67
2022/01/22 14:31:17;;;;;;;4.63;2.57;;;1.00;90.50;;;;;;8479552;27;20175;-67
2022/01/22 14:35:19;;;;;;;5.00;1.80;;;1.00;99.90;;;;;;8470421;27;20243;-68
2022/01/22 14:47:50;;;;;;;4.67;2.70;;;0.80;1.00;;;;;;8483570;27;20302;-67
2022/01/22 14:51:51;;;;;;;8.07;3.20;;;0.60;99.90;;;;;;8477778;27;20275;-67
2022/01/22 14:55:59;;;;;;;5.67;2.90;;;0.50;99.90;;;;;;8485737;27;20232;-67
2022/01/22 15:00:06;;;;;;;12.93;4.67;;;0.40;1.00;;;;;;8486559;27;20218;-67
2022/01/22 15:04:07;;;;;;;18.17;7.03;;;0.30;99.90;;;;;;8481501;27;20175;-67
2022/01/22 15:08:08;;;;;;;12.63;5.23;;;0.30;99.90;;;;;;8465431;27;20204;-67
2022/01/22 15:12:11;;;;;;;8.03;3.93;;;0.30;1.00;;;;;;8474233;27;20272;-67
2022/01/22 15:16:17;;;;;;;44.87;17.37;;;0.20;1.00;;;;;;8484037;27;20211;-67
2022/01/22 15:20:24;;;;;;;27.47;10.23;;;0.20;12.20;;;;;;8456517;28;20179;-67
2022/01/22 15:24:26;;;;;;;3.47;2.50;;;0.10;99.90;;;;;;8472033;27;20194;-67
2022/01/22 15:28:32;;;;;;;2.20;1.77;;;0.10;99.90;;;;;;8470978;27;20214;-67
2022/01/22 15:32:42;;;;;;;3.37;2.20;;;0.00;99.90;;;;;;8476113;27;20190;-67
2022/01/22 15:36:46;;;;;;;4.20;2.30;;;-0.10;99.90;;;;;;8474881;27;20187;-67
2022/01/22 15:40:47;;;;;;;4.33;2.53;;;-0.20;1.00;;;;;;8477029;27;20275;-68
2022/01/22 15:44:48;;;;;;;4.90;2.10;;;-0.30;1.00;;;;;;8477901;27;20190;-68
2022/01/22 15:48:49;;;;;;;5.60;2.50;;;-0.30;1.00;;;;;;8488265;27;20203;-68
2022/01/22 15:52:49;;;;;;;3.17;1.70;;;-0.30;90.00;;;;;;8488460;27;20186;-68
2022/01/22 15:56:52;;;;;;;2.07;1.40;;;-0.40;99.90;;;;;;8484258;27;20191;-67
2022/01/22 16:00:53;;;;;;;2.07;1.20;;;-0.40;99.90;;;;;;8482770;27;20175;-66
2022/01/22 16:04:55;;;;;;;3.23;1.60;;;-0.40;99.90;;;;;;8469728;27;20220;-65
2022/01/22 16:08:56;;;;;;;2.87;1.47;;;-0.50;99.90;;;;;;8488600;27;20199;-65
2022/01/22 16:12:57;;;;;;;3.33;1.33;;;-0.50;99.90;;;;;;8482832;27;20259;-65
2022/01/22 16:16:58;;;;;;;3.33;1.70;;;-0.60;99.90;;;;;;8474469;27;20199;-67
2022/01/22 16:20:59;;;;;;;2.97;1.40;;;-0.70;99.90;;;;;;8454285;28;20172;-66
2022/01/22 16:25:01;;;;;;;2.37;1.60;;;-0.70;99.90;;;;;;8483770;27;20265;-66
2022/01/22 16:29:02;;;;;;;1.67;1.33;;;-0.80;99.90;;;;;;8484638;27;20430;-66
2022/01/22 16:33:04;;;;;;;3.27;1.30;;;-0.90;99.90;;;;;;8478107;27;20336;-66
2022/01/22 16:37:05;;;;;;;2.70;1.47;;;-0.90;99.90;;;;;;8466404;27;20213;-73
2022/01/22 16:41:08;;;;;;;2.00;1.60;;;-1.00;99.90;;;;;;8462990;27;20183;-65
2022/01/22 16:58:10;;;;;;;2.37;1.33;;;-1.00;99.90;;;;;;8479746;27;20208;-65
2022/01/22 17:02:16;;;;;;;4.00;1.63;;;-1.00;99.90;;;;;;8477663;27;20181;-65
2022/01/22 17:06:18;;;;;;;3.33;1.97;;;-1.00;99.90;;;;;;8477106;27;20232;-66
2022/01/22 17:14:22;;;;;;;3.07;1.70;;;-1.00;99.90;;;;;;8469162;28;20174;-64
2022/01/22 17:18:23;;;;;;;2.43;1.70;;;-1.10;99.90;;;;;;8485215;28;20459;-65
2022/01/22 17:22:24;;;;;;;3.63;1.80;;;-1.10;99.90;;;;;;8487160;28;20183;-65
2022/01/22 17:26:25;;;;;;;3.53;1.90;;;-1.10;99.90;;;;;;8480905;27;20231;-65
2022/01/22 17:30:26;;;;;;;2.80;1.63;;;-1.10;99.90;;;;;;8458431;27;20221;-66
2022/01/22 17:34:27;;;;;;;3.40;2.83;;;-1.10;99.90;;;;;;8473129;27;20182;-65
2022/01/22 17:38:28;;;;;;;4.93;2.80;;;-1.20;99.90;;;;;;8476991;28;20187;-65
2022/01/22 17:42:31;;;;;;;4.90;2.60;;;-1.10;99.90;;;;;;8467085;27;20240;-64
2022/01/22 17:46:33;;;;;;;2.83;1.80;;;-1.10;99.90;;;;;;8488463;27;20189;-65
2022/01/22 17:50:35;;;;;;;4.23;1.80;;;-1.10;99.90;;;;;;8489065;27;20212;-65
2022/01/22 17:54:36;;;;;;;4.03;1.67;;;-1.00;99.90;;;;;;8478771;27;20206;-66
2022/01/22 17:58:36;;;;;;;3.17;2.10;;;-1.00;99.90;;;;;;8483071;27;20197;-66
2022/01/22 18:02:37;;;;;;;3.50;1.87;;;-0.90;99.90;;;;;;8479148;27;20172;-66
2022/01/22 18:06:39;;;;;;;2.93;1.90;;;-0.90;99.90;;;;;;8479260;27;20176;-66
2022/01/22 18:10:41;;;;;;;3.10;1.47;;;-0.90;99.90;;;;;;8485507;27;20410;-66
2022/01/22 18:14:42;;;;;;;3.17;1.90;;;-0.90;99.90;;;;;;8486407;27;20182;-67
2022/01/22 18:18:43;;;;;;;4.97;1.93;;;-0.90;99.90;;;;;;8471766;27;20201;-66
2022/01/22 18:22:44;;;;;;;4.80;2.03;;;-0.90;99.90;;;;;;8495461;27;20184;-66
2022/01/22 18:26:45;;;;;;;4.63;2.20;;;-0.90;99.90;;;;;;8473245;27;20217;-66
2022/01/22 18:30:46;;;;;;;4.07;1.90;;;-0.90;99.90;;;;;;8480120;27;20213;-66
2022/01/22 18:34:47;;;;;;;3.43;2.00;;;-0.90;99.90;;;;;;8482085;27;20268;-66
2022/01/22 18:38:48;;;;;;;3.47;2.03;;;-0.90;99.90;;;;;;8465963;27;20185;-70
2022/01/22 18:42:53;;;;;;;2.97;1.90;;;-1.00;99.90;;;;;;8471931;27;20188;-66
2022/01/22 18:46:55;;;;;;;6.17;2.10;;;-1.00;99.90;;;;;;8471747;27;20262;-66
2022/01/22 18:51:02;;;;;;;6.53;2.30;;;-1.00;99.90;;;;;;8490583;27;20374;-66
2022/01/22 18:55:03;;;;;;;4.17;2.20;;;-1.00;99.90;;;;;;8489479;27;20178;-66
2022/01/22 18:59:11;;;;;;;5.00;2.50;;;-1.00;99.90;;;;;;8485639;27;20198;-66
2022/01/22 19:03:13;;;;;;;4.80;3.03;;;-1.10;99.90;;;;;;8488257;27;20184;-65
2022/01/22 19:07:14;;;;;;;5.57;2.57;;;-1.00;99.90;;;;;;8480995;27;20207;-65
2022/01/22 19:11:15;;;;;;;4.00;2.50;;;-1.00;99.90;;;;;;8467404;27;20196;-66
2022/01/22 19:15:16;;;;;;;5.33;2.90;;;-1.00;99.90;;;;;;8467657;27;20232;-66
2022/01/22 19:19:18;;;;;;;4.43;2.47;;;-1.10;99.90;;;;;;8489038;27;20590;-66
2022/01/22 19:31:47;;;;;;;6.23;2.57;;;-1.10;99.90;;;;;;8470315;27;20239;-66
2022/01/22 19:35:51;;;;;;;5.13;2.70;;;-1.10;99.90;;;;;;8480351;27;20187;-66
2022/01/22 19:39:52;;;;;;;6.03;2.90;;;-1.20;99.90;;;;;;8468181;27;20186;-66
2022/01/22 19:44:05;;;;;;;4.93;2.37;;;-1.20;99.90;;;;;;8479714;27;20189;-66
2022/01/22 19:48:07;;;;;;;3.73;2.57;;;-1.20;99.90;;;;;;8469818;27;20206;-66
2022/01/22 19:52:08;;;;;;;3.77;2.60;;;-1.20;99.90;;;;;;8489308;27;20179;-66
2022/01/22 19:56:09;;;;;;;7.93;3.07;;;-1.30;99.90;;;;;;8487347;27;20184;-65
2022/01/22 20:00:11;;;;;;;7.30;3.13;;;-1.30;99.90;;;;;;8476438;27;20228;-66
2022/01/22 20:04:12;;;;;;;6.77;3.40;;;-1.30;99.90;;;;;;8477776;27;20181;-66
2022/01/22 20:08:21;;;;;;;6.37;3.23;;;-1.40;99.90;;;;;;8477898;27;20202;-66
2022/01/22 20:12:21;;;;;;;7.23;3.30;;;-1.40;99.90;;;;;;8477425;27;20200;-65
2022/01/22 20:16:22;;;;;;;4.77;2.70;;;-1.50;99.90;;;;;;8477239;27;20207;-65
2022/01/22 20:20:23;;;;;;;6.83;3.20;;;-1.50;99.90;;;;;;8453270;28;20456;-66
2022/01/22 20:24:24;;;;;;;8.00;3.77;;;-1.60;99.90;;;;;;8465572;27;20173;-65
2022/01/22 20:28:27;;;;;;;6.63;4.57;;;-1.60;99.90;;;;;;8472055;27;20234;-66
2022/01/22 20:32:28;;;;;;;6.57;4.20;;;-1.70;99.90;;;;;;8469108;27;20278;-65
2022/01/22 20:36:30;;;;;;;12.40;5.13;;;-1.80;99.90;;;;;;8467130;27;20188;-65
2022/01/22 20:40:31;;;;;;;9.33;5.23;;;-2.00;99.90;;;;;;8456321;27;20192;-64
2022/01/22 20:44:34;;;;;;;9.10;4.80;;;-2.10;99.90;;;;;;8473591;27;20198;-65
2022/01/22 20:48:35;;;;;;;9.73;5.13;;;-2.20;99.90;;;;;;8487286;27;20197;-65
2022/01/22 20:52:37;;;;;;;9.80;5.00;;;-2.20;99.90;;;;;;8486691;27;20200;-65
2022/01/22 20:56:38;;;;;;;10.83;4.30;;;-2.20;99.90;;;;;;8486931;27;20173;-64
2022/01/22 21:00:39;;;;;;;11.23;5.67;;;-2.20;99.90;;;;;;8474008;27;20179;-65
2022/01/22 21:04:40;;;;;;;14.63;6.37;;;-2.20;99.90;;;;;;8466043;27;20183;-65
2022/01/22 21:08:41;;;;;;;16.37;7.93;;;-2.10;99.90;;;;;;8481252;28;20299;-65
2022/01/22 21:12:44;;;;;;;20.07;8.63;;;-2.10;99.90;;;;;;8486421;28;20186;-65
2022/01/22 21:16:45;;;;;;;17.47;9.13;;;-2.10;99.90;;;;;;8487049;27;20214;-65
2022/01/22 21:20:46;;;;;;;17.53;8.83;;;-2.10;99.90;;;;;;8492757;27;20191;-65
2022/01/22 21:24:47;;;;;;;16.10;8.93;;;-2.10;99.90;;;;;;8487186;27;20183;-65
2022/01/22 21:28:49;;;;;;;25.80;10.93;;;-2.20;99.90;;;;;;8487794;27;20256;-66
2022/01/22 21:32:50;;;;;;;22.97;9.93;;;-2.20;99.90;;;;;;8481378;27;20182;-66
2022/01/22 21:41:10;;;;;;;22.97;10.90;;;-2.40;99.90;;;;;;8467534;27;20213;-65
2022/01/22 21:45:11;;;;;;;27.90;11.87;;;-2.40;99.90;;;;;;8479193;27;20281;-65
2022/01/22 21:49:12;;;;;;;24.10;11.50;;;-2.40;99.90;;;;;;8483894;27;20264;-66
2022/01/22 21:53:15;;;;;;;28.20;12.63;;;-2.30;99.90;;;;;;8493461;27;20196;-65
2022/01/22 21:57:17;;;;;;;27.20;14.17;;;-2.20;99.90;;;;;;8492059;27;20195;-65
2022/01/22 22:01:18;;;;;;;30.97;15.23;;;-2.10;99.90;;;;;;8481986;27;20604;-64
2022/01/22 22:05:25;;;;;;;27.10;12.93;;;-2.10;99.90;;;;;;8486959;27;20214;-65
2022/01/22 22:09:26;;;;;;;32.37;15.60;;;-2.10;99.90;;;;;;8487044;27;20252;-64
2022/01/22 22:13:27;;;;;;;33.30;14.17;;;-2.10;99.90;;;;;;8481457;27;20185;-64
2022/01/22 22:17:28;;;;;;;30.33;14.17;;;-2.10;99.90;;;;;;8481265;27;20203;-64
2022/01/22 22:21:29;;;;;;;33.10;15.13;;;-2.10;99.90;;;;;;8490988;27;20184;-64
2022/01/22 22:25:30;;;;;;;27.97;13.30;;;-2.00;99.90;;;;;;8484160;27;20186;-64
2022/01/22 22:29:31;;;;;;;24.83;12.07;;;-1.90;99.90;;;;;;8488298;27;20213;-65
2022/01/22 22:33:32;;;;;;;25.87;10.90;;;-1.90;99.90;;;;;;8480437;27;20199;-64
2022/01/22 22:37:33;;;;;;;29.77;13.03;;;-1.80;99.90;;;;;;8478670;27;20208;-64
2022/01/22 22:41:36;;;;;;;25.23;10.27;;;-1.80;99.90;;;;;;8487462;27;20194;-65
2022/01/22 22:45:37;;;;;;;24.90;12.03;;;-1.70;99.90;;;;;;8473421;27;20175;-64
2022/01/22 22:49:38;;;;;;;22.70;10.47;;;-1.60;99.90;;;;;;8462581;27;20398;-65
2022/01/22 22:53:38;;;;;;;18.83;9.90;;;-1.60;99.90;;;;;;8456515;28;20173;-64
2022/01/22 22:57:39;;;;;;;22.73;9.90;;;-1.50;99.90;;;;;;8478205;27;20197;-64
2022/01/22 23:01:40;;;;;;;18.20;9.83;;;-1.50;99.90;;;;;;8471213;27;20192;-64
2022/01/22 23:05:49;;;;;;;19.13;9.27;;;-1.50;99.90;;;;;;8470605;27;20213;-71
2022/01/22 23:09:53;;;;;;;18.63;8.87;;;-1.40;99.90;;;;;;8486901;27;20235;-65
2022/01/22 23:14:01;;;;;;;22.00;9.63;;;-1.40;99.90;;;;;;8474048;27;20176;-66
2022/01/22 23:22:35;;;;;;;15.97;8.53;;;-1.40;99.90;;;;;;8489407;27;20186;-65
2022/01/22 23:26:37;;;;;;;14.83;7.10;;;-1.40;99.90;;;;;;8479000;27;20510;-66
2022/01/22 23:30:41;;;;;;;19.57;8.40;;;-1.50;99.90;;;;;;8476205;27;20200;-64
2022/01/22 23:34:49;;;;;;;15.10;7.80;;;-1.60;99.90;;;;;;8480972;27;20265;-65
2022/01/22 23:55:56;;;;;;;12.47;6.70;;;-1.60;99.90;;;;;;8489215;27;20191;-64
